createdAt,value
2022-11-15T00:00:20.493Z,56.39
2022-11-15T00:03:07.604Z,56.24
2022-11-15T00:05:54.656Z,56.24
2022-11-15T00:08:41.480Z,56.19
2022-11-15T00:11:27.939Z,56.26
2022-11-15T00:14:14.233Z,56.31
2022-11-15T00:17:00.581Z,56.28
2022-11-15T00:19:47.101Z,56.35
2022-11-15T00:22:34.742Z,56.47
2022-11-15T00:25:21.205Z,56.17
2022-11-15T00:28:07.844Z,56.45
2022-11-15T00:30:54.417Z,56.33
2022-11-15T00:33:41.166Z,56.19
2022-11-15T00:36:28.714Z,56.24
2022-11-15T00:39:15.307Z,56.23
2022-11-15T00:42:01.735Z,56.10
2022-11-15T00:44:48.745Z,56.22
2022-11-15T00:47:35.112Z,56.33
2022-11-15T00:50:21.358Z,56.26
2022-11-15T00:53:07.815Z,56.29
2022-11-15T00:55:54.403Z,56.25
2022-11-15T00:58:41.462Z,56.32
2022-11-15T01:01:28.334Z,56.33
2022-11-15T01:04:15.233Z,56.27
2022-11-15T01:07:01.816Z,56.40
2022-11-15T01:09:48.833Z,56.47
2022-11-15T01:12:36.356Z,56.44
2022-11-15T01:15:22.797Z,56.52
2022-11-15T01:18:09.698Z,56.44
2022-11-15T01:20:56.145Z,56.51
2022-11-15T01:23:43.940Z,56.59
2022-11-15T01:26:30.241Z,56.66
2022-11-15T01:29:16.470Z,56.53
2022-11-15T01:32:03.338Z,56.48
2022-11-15T01:34:49.749Z,56.50
2022-11-15T01:37:36.240Z,56.60
2022-11-15T01:40:22.926Z,56.63
2022-11-15T01:43:33.431Z,56.50
2022-11-15T01:46:42.642Z,56.67
2022-11-15T01:49:33.481Z,56.72
2022-11-15T01:52:23.359Z,56.77
2022-11-15T01:55:18.262Z,56.69
2022-11-15T01:58:06.611Z,56.58
2022-11-15T02:00:54.031Z,56.67
2022-11-15T02:04:14.294Z,56.67
2022-11-15T02:07:06.383Z,56.89
2022-11-15T02:09:53.453Z,56.66
2022-11-15T02:12:40.311Z,56.71
2022-11-15T02:15:40.359Z,56.56
2022-11-15T02:18:39.155Z,56.60
2022-11-15T02:21:47.522Z,56.59
2022-11-15T02:24:55.392Z,56.83
2022-11-15T02:27:53.232Z,56.78
2022-11-15T02:31:07.238Z,56.79
2022-11-15T02:34:29.512Z,56.91
2022-11-15T02:37:46.113Z,57.04
2022-11-15T02:41:14.260Z,56.85
2022-11-15T02:44:19.882Z,56.82
2022-11-15T02:47:16.010Z,56.76
2022-11-15T02:50:11.347Z,56.70
2022-11-15T02:52:57.945Z,56.79
2022-11-15T02:55:51.817Z,56.59
2022-11-15T02:59:18.761Z,56.56
2022-11-15T03:02:32.837Z,56.60
2022-11-15T03:05:38.320Z,56.79
2022-11-15T03:08:34.965Z,56.82
2022-11-15T03:11:23.964Z,56.86
2022-11-15T03:14:27.017Z,56.77
2022-11-15T03:17:48.811Z,56.86
2022-11-15T03:20:37.112Z,56.97
2022-11-15T03:23:24.082Z,57.02
2022-11-15T03:26:15.808Z,57.01
2022-11-15T03:29:13.640Z,57.07
2022-11-15T03:32:14.172Z,57.08
2022-11-15T03:35:13.243Z,57.16
2022-11-15T03:38:25.497Z,56.99
2022-11-15T03:41:29.129Z,57.03
2022-11-15T03:44:41.308Z,57.15
2022-11-15T03:47:42.695Z,57.17
2022-11-15T03:50:29.885Z,57.43
2022-11-15T03:53:17.475Z,57.23
2022-11-15T03:56:04.178Z,57.18
2022-11-15T03:58:51.358Z,57.18
2022-11-15T04:01:37.950Z,57.19
2022-11-15T04:04:24.482Z,57.23
2022-11-15T04:07:11.052Z,57.23
2022-11-15T04:10:04.042Z,57.02
2022-11-15T04:12:50.353Z,57.33
2022-11-15T04:15:36.852Z,57.35
2022-11-15T04:18:23.120Z,57.26
2022-11-15T04:21:29.694Z,57.20
2022-11-15T04:24:16.079Z,57.34
2022-11-15T04:27:03.134Z,57.33
2022-11-15T04:29:49.682Z,57.25
2022-11-15T04:32:36.143Z,57.29
2022-11-15T04:35:22.720Z,57.51
2022-11-15T04:38:11.272Z,57.30
2022-11-15T04:40:57.913Z,57.31
2022-11-15T04:43:44.390Z,57.38
2022-11-15T04:46:31.340Z,57.43
2022-11-15T04:49:18.981Z,57.44
2022-11-15T04:52:05.757Z,57.50
2022-11-15T04:54:52.667Z,57.46
2022-11-15T04:57:39.374Z,57.33
2022-11-15T05:00:26.090Z,57.58
2022-11-15T05:03:31.280Z,57.69
2022-11-15T05:06:18.082Z,57.66
2022-11-15T05:09:04.497Z,57.60
2022-11-15T05:11:50.880Z,57.69
2022-11-15T05:14:37.160Z,57.63
2022-11-15T05:17:23.475Z,57.60
2022-11-15T05:20:11.093Z,57.34
2022-11-15T05:22:57.140Z,57.56
2022-11-15T05:25:44.062Z,57.48
2022-11-15T05:28:31.173Z,57.55
2022-11-15T05:31:18.201Z,57.52
2022-11-15T05:34:07.017Z,57.54
2022-11-15T05:36:54.441Z,57.74
2022-11-15T05:39:41.381Z,57.53
2022-11-15T05:42:29.203Z,57.60
2022-11-15T05:45:19.310Z,57.69
2022-11-15T05:48:11.129Z,57.46
2022-11-15T05:50:58.166Z,57.53
2022-11-15T05:53:45.276Z,57.52
2022-11-15T05:56:31.576Z,57.14
2022-11-15T05:59:19.127Z,57.40
2022-11-15T06:02:06.012Z,57.59
2022-11-15T06:04:52.247Z,57.61
2022-11-15T06:07:39.224Z,57.43
2022-11-15T06:10:27.706Z,57.22
2022-11-15T06:13:16.525Z,57.20
2022-11-15T06:16:03.265Z,57.09
2022-11-15T06:18:51.111Z,57.23
2022-11-15T06:21:37.486Z,57.22
2022-11-15T06:24:24.726Z,57.15
2022-11-15T06:27:12.670Z,57.17
2022-11-15T06:29:58.938Z,57.20
2022-11-15T06:32:46.205Z,57.25
2022-11-15T06:35:36.171Z,57.37
2022-11-15T06:38:22.588Z,57.53
2022-11-15T06:41:11.788Z,57.36
2022-11-15T06:44:01.072Z,57.45
2022-11-15T06:46:47.539Z,57.37
2022-11-15T06:49:33.886Z,57.37
2022-11-15T06:52:20.607Z,57.57
2022-11-15T06:55:08.217Z,57.78
2022-11-15T06:57:55.870Z,58.00
2022-11-15T07:00:43.444Z,57.90
2022-11-15T07:03:30.526Z,57.93
2022-11-15T07:06:16.975Z,58.08
2022-11-15T07:09:04.509Z,58.06
2022-11-15T07:11:51.497Z,58.11
2022-11-15T07:14:38.358Z,58.01
2022-11-15T07:17:24.826Z,58.08
2022-11-15T07:20:13.617Z,58.05
2022-11-15T07:23:05.607Z,58.03
2022-11-15T07:25:51.834Z,58.47
2022-11-15T07:28:38.465Z,58.43
2022-11-15T07:31:24.957Z,58.23
2022-11-15T07:34:11.523Z,58.43
2022-11-15T07:36:58.422Z,58.42
2022-11-15T07:39:45.397Z,58.14
2022-11-15T07:43:05.476Z,58.25
2022-11-15T07:45:58.835Z,58.27
2022-11-15T07:48:46.201Z,58.39
2022-11-15T07:51:32.896Z,58.21
2022-11-15T07:54:19.457Z,58.33
2022-11-15T07:57:07.738Z,58.46
2022-11-15T07:59:54.855Z,58.11
2022-11-15T08:02:41.900Z,58.02
2022-11-15T08:05:28.049Z,58.06
2022-11-15T08:08:14.159Z,58.23
2022-11-15T08:11:01.632Z,58.05
2022-11-15T08:13:47.841Z,58.06
2022-11-15T08:16:34.607Z,58.07
2022-11-15T08:19:21.455Z,58.08
2022-11-15T08:22:08.992Z,58.16
2022-11-15T08:24:55.416Z,57.93
2022-11-15T08:27:42.075Z,58.04
2022-11-15T08:30:29.410Z,58.01
2022-11-15T08:33:17.232Z,57.99
2022-11-15T08:36:04.586Z,57.87
2022-11-15T08:38:51.141Z,58.02
2022-11-15T08:41:39.099Z,58.06
2022-11-15T08:44:25.693Z,58.10
2022-11-15T08:47:15.073Z,58.11
2022-11-15T08:50:01.757Z,58.30
2022-11-15T08:52:49.241Z,58.36
2022-11-15T08:55:41.407Z,58.41
2022-11-15T08:58:28.219Z,58.42
2022-11-15T09:01:20.860Z,58.27
2022-11-15T09:04:07.201Z,58.42
2022-11-15T09:06:53.731Z,58.29
2022-11-15T09:09:40.995Z,58.42
2022-11-15T09:12:27.344Z,58.32
2022-11-15T09:15:13.840Z,58.08
2022-11-15T09:18:00.866Z,58.07
2022-11-15T09:20:48.238Z,58.04
2022-11-15T09:23:35.119Z,57.98
2022-11-15T09:26:23.893Z,58.00
2022-11-15T09:29:10.603Z,57.84
2022-11-15T09:31:57.121Z,57.76
2022-11-15T09:34:43.739Z,57.86
2022-11-15T09:37:33.596Z,57.76
2022-11-15T09:40:23.953Z,57.80
2022-11-15T09:43:22.289Z,57.59
2022-11-15T09:47:10.642Z,57.66
2022-11-15T09:50:02.602Z,57.95
2022-11-15T09:52:37.618Z,57.86
2022-11-15T09:55:09.963Z,57.80
2022-11-15T09:58:02.582Z,57.73
2022-11-15T10:00:47.223Z,57.73
2022-11-15T10:03:21.240Z,57.74
2022-11-15T10:05:53.650Z,57.68
2022-11-15T10:08:46.500Z,57.46
2022-11-15T10:11:42.243Z,57.42
2022-11-15T10:14:20.857Z,57.25
2022-11-15T10:17:09.993Z,56.95
2022-11-15T10:20:13.906Z,56.82
2022-11-15T10:22:49.462Z,56.82
2022-11-15T10:25:26.450Z,56.67
2022-11-15T10:28:27.860Z,56.39
2022-11-15T10:31:30.120Z,56.49
2022-11-15T10:34:20.363Z,56.43
2022-11-15T10:37:00.269Z,56.15
2022-11-15T10:39:28.613Z,56.52
2022-11-15T10:41:56.966Z,56.52
2022-11-15T10:44:40.435Z,56.35
2022-11-15T10:47:37.843Z,56.32
2022-11-15T10:50:31.074Z,56.30
2022-11-15T10:53:03.647Z,56.45
2022-11-15T10:55:35.178Z,56.57
2022-11-15T10:58:39.918Z,56.36
2022-11-15T11:01:24.599Z,56.52
2022-11-15T11:04:08.563Z,56.52
2022-11-15T11:06:51.390Z,56.56
2022-11-15T11:09:36.503Z,56.41
2022-11-15T11:12:11.209Z,56.51
2022-11-15T11:14:40.502Z,56.41
2022-11-15T11:17:33.790Z,56.58
2022-11-15T11:20:20.526Z,56.51
2022-11-15T11:23:41.537Z,56.52
2022-11-15T11:26:32.984Z,56.58
2022-11-15T11:29:27.074Z,56.69
2022-11-15T11:32:16.218Z,56.43
2022-11-15T11:35:14.289Z,56.46
2022-11-15T11:38:24.942Z,56.42
2022-11-15T11:41:33.797Z,56.31
2022-11-15T11:44:24.233Z,56.22
2022-11-15T11:47:13.158Z,56.32
2022-11-15T11:49:51.778Z,56.42
2022-11-15T11:52:42.781Z,56.24
2022-11-15T11:55:24.301Z,56.29
2022-11-15T11:58:36.678Z,56.11
2022-11-15T12:01:13.309Z,56.16
2022-11-15T12:03:53.269Z,56.07
2022-11-15T12:06:35.330Z,56.12
2022-11-15T12:09:39.346Z,55.91
2022-11-15T12:12:44.761Z,56.22
2022-11-15T12:15:23.162Z,56.19
2022-11-15T12:17:51.759Z,56.18
2022-11-15T12:20:31.780Z,55.83
2022-11-15T12:23:30.096Z,55.75
2022-11-15T12:26:19.811Z,55.44
2022-11-15T12:29:09.092Z,55.46
2022-11-15T12:31:45.029Z,55.64
2022-11-15T12:34:21.965Z,55.51
2022-11-15T12:36:52.429Z,55.39
2022-11-15T12:39:21.946Z,55.40
2022-11-15T12:41:56.145Z,55.20
2022-11-15T12:44:33.272Z,55.14
2022-11-15T12:47:02.836Z,55.24
2022-11-15T12:49:30.463Z,55.33
2022-11-15T12:51:58.970Z,55.42
2022-11-15T12:54:31.832Z,55.28
2022-11-15T12:57:08.379Z,55.07
2022-11-15T13:00:03.780Z,54.97
2022-11-15T13:02:36.939Z,55.01
2022-11-15T13:05:17.189Z,54.76
2022-11-15T13:07:47.619Z,54.79
2022-11-15T13:10:18.022Z,54.80
2022-11-15T13:12:46.413Z,54.78
2022-11-15T13:15:14.448Z,54.66
2022-11-15T13:17:54.453Z,54.29
2022-11-15T13:20:32.619Z,54.20
2022-11-15T13:23:11.252Z,54.30
2022-11-15T13:26:17.690Z,54.34
2022-11-15T13:28:56.080Z,54.16
2022-11-15T13:31:41.638Z,54.26
2022-11-15T13:34:53.149Z,54.24
2022-11-15T13:37:21.283Z,54.53
2022-11-15T13:39:50.982Z,54.40
2022-11-15T13:42:22.342Z,54.37
2022-11-15T13:45:01.718Z,54.43
2022-11-15T13:47:32.826Z,54.33
2022-11-15T13:50:09.642Z,54.39
2022-11-15T13:52:44.225Z,54.47
2022-11-15T13:55:19.980Z,54.46
2022-11-15T13:58:07.500Z,54.29
2022-11-15T14:00:39.701Z,54.28
2022-11-15T14:03:29.047Z,54.48
2022-11-15T14:06:18.788Z,54.38
2022-11-15T14:09:01.728Z,54.61
2022-11-15T14:11:29.847Z,54.51
2022-11-15T14:14:10.141Z,54.35
2022-11-15T14:16:46.496Z,54.29
2022-11-15T14:19:36.460Z,54.02
2022-11-15T14:22:12.000Z,54.06
2022-11-15T14:24:40.648Z,54.18
2022-11-15T14:27:27.887Z,53.75
2022-11-15T14:29:59.417Z,53.81
2022-11-15T14:32:38.052Z,54.06
2022-11-15T14:35:23.991Z,53.91
2022-11-15T14:37:52.831Z,53.99
2022-11-15T14:40:23.272Z,54.04
2022-11-15T14:42:51.373Z,54.07
2022-11-15T14:45:23.104Z,54.00
2022-11-15T14:47:51.480Z,54.02
2022-11-15T14:50:22.632Z,54.09
2022-11-15T14:52:50.892Z,54.02
2022-11-15T14:55:27.991Z,54.01
2022-11-15T14:57:57.304Z,54.03
2022-11-15T15:00:27.843Z,53.94
2022-11-15T15:03:00.014Z,53.93
2022-11-15T15:05:36.606Z,53.77
2022-11-15T15:08:06.462Z,54.06
2022-11-15T15:10:41.623Z,53.99
2022-11-15T15:13:26.218Z,53.73
2022-11-15T15:15:56.273Z,53.81
2022-11-15T15:18:24.703Z,53.91
2022-11-15T15:21:01.293Z,53.75
2022-11-15T15:23:32.113Z,53.53
2022-11-15T15:26:03.845Z,53.54
2022-11-15T15:28:34.761Z,53.84
2022-11-15T15:31:04.019Z,53.68
2022-11-15T15:33:34.248Z,53.74
2022-11-15T15:36:03.039Z,53.59
2022-11-15T15:38:33.425Z,53.42
2022-11-15T15:41:04.855Z,53.60
2022-11-15T15:43:35.259Z,53.61
2022-11-15T15:46:03.412Z,53.52
2022-11-15T15:48:32.138Z,53.45
2022-11-15T15:51:00.357Z,53.46
2022-11-15T15:53:30.944Z,53.58
2022-11-15T15:56:00.023Z,53.41
2022-11-15T15:58:28.553Z,53.43
2022-11-15T16:00:56.933Z,53.41
2022-11-15T16:03:25.253Z,53.52
2022-11-15T16:05:53.961Z,53.27
2022-11-15T16:08:25.526Z,53.26
2022-11-15T16:10:53.886Z,53.75
2022-11-15T16:13:22.021Z,53.72
2022-11-15T16:15:55.156Z,53.44
2022-11-15T16:18:23.556Z,53.50
2022-11-15T16:20:53.275Z,53.49
2022-11-15T16:23:22.916Z,53.31
2022-11-15T16:25:56.693Z,53.20
2022-11-15T16:28:30.224Z,53.37
2022-11-15T16:31:20.905Z,53.37
2022-11-15T16:33:49.602Z,53.35
2022-11-15T16:36:30.668Z,53.16
2022-11-15T16:39:05.562Z,53.14
2022-11-15T16:41:34.202Z,53.23
2022-11-15T16:44:02.540Z,53.08
2022-11-15T16:46:31.207Z,53.11
2022-11-15T16:48:59.582Z,53.16
2022-11-15T16:51:28.013Z,52.91
2022-11-15T16:53:56.271Z,52.88
2022-11-15T16:56:31.557Z,52.65
2022-11-15T16:59:01.776Z,52.82
2022-11-15T17:01:35.399Z,52.52
2022-11-15T17:04:14.565Z,52.70
2022-11-15T17:06:46.685Z,52.75
2022-11-15T17:09:24.794Z,52.66
2022-11-15T17:11:54.172Z,52.59
2022-11-15T17:14:23.057Z,52.70
2022-11-15T17:16:51.834Z,52.53
2022-11-15T17:19:21.799Z,52.56
2022-11-15T17:21:50.587Z,52.42
2022-11-15T17:24:21.313Z,52.56
2022-11-15T17:26:49.505Z,52.45
2022-11-15T17:29:18.646Z,52.38
2022-11-15T17:31:47.010Z,52.44
2022-11-15T17:34:15.203Z,52.35
2022-11-15T17:36:43.480Z,52.61
2022-11-15T17:39:11.904Z,52.49
2022-11-15T17:41:40.163Z,52.20
2022-11-15T17:44:08.501Z,52.15
2022-11-15T17:46:38.015Z,52.16
2022-11-15T17:49:07.152Z,52.15
2022-11-15T17:51:37.311Z,52.26
2022-11-15T17:54:06.751Z,52.47
2022-11-15T17:56:40.959Z,52.20
2022-11-15T17:59:14.824Z,52.06
2022-11-15T18:01:44.477Z,52.32
2022-11-15T18:04:15.086Z,52.31
2022-11-15T18:06:43.229Z,52.12
2022-11-15T18:09:12.490Z,52.19
2022-11-15T18:11:43.275Z,52.13
2022-11-15T18:14:15.555Z,52.23
2022-11-15T18:16:44.257Z,52.29
2022-11-15T18:19:15.850Z,52.16
2022-11-15T18:21:59.290Z,52.31
2022-11-15T18:24:31.254Z,52.30
2022-11-15T18:27:01.815Z,52.56
2022-11-15T18:29:31.046Z,52.41
2022-11-15T18:31:59.628Z,52.43
2022-11-15T18:34:32.505Z,52.45
2022-11-15T18:37:03.265Z,52.52
2022-11-15T18:39:31.867Z,52.47
2022-11-15T18:42:00.142Z,52.43
2022-11-15T18:44:31.918Z,52.42
2022-11-15T18:47:00.657Z,52.44
2022-11-15T18:49:29.246Z,52.59
2022-11-15T18:51:57.689Z,52.61
2022-11-15T18:57:14.744Z,52.41
2022-11-15T18:59:43.180Z,52.70
2022-11-15T19:02:13.207Z,52.49
2022-11-15T19:04:41.465Z,52.48
2022-11-15T19:07:10.522Z,52.39
2022-11-15T19:09:39.017Z,52.31
2022-11-15T19:12:07.598Z,52.48
2022-11-15T19:14:42.805Z,52.66
2022-11-15T19:17:11.290Z,52.67
2022-11-15T19:19:39.789Z,52.73
2022-11-15T19:22:08.009Z,52.65
2022-11-15T19:24:36.322Z,52.75
2022-11-15T19:27:04.530Z,52.86
2022-11-15T19:29:33.803Z,52.94
2022-11-15T19:32:03.544Z,53.00
2022-11-15T19:34:31.740Z,52.87
2022-11-15T19:37:00.796Z,53.19
2022-11-15T19:39:29.808Z,53.19
2022-11-15T19:41:58.152Z,53.23
2022-11-15T19:44:27.582Z,53.26
2022-11-15T19:46:55.968Z,53.42
2022-11-15T19:49:28.721Z,53.29
2022-11-15T19:51:58.169Z,53.33
2022-11-15T19:54:26.751Z,53.40
2022-11-15T19:56:55.507Z,53.47
2022-11-15T19:59:24.486Z,53.32
2022-11-15T20:01:52.862Z,53.41
2022-11-15T20:04:22.840Z,53.19
2022-11-15T20:06:51.894Z,53.16
2022-11-15T20:09:21.091Z,52.88
2022-11-15T20:11:49.632Z,52.84
2022-11-15T20:14:18.000Z,52.82
2022-11-15T20:16:50.105Z,52.64
2022-11-15T20:19:22.648Z,52.78
2022-11-15T20:21:50.812Z,52.66
2022-11-15T20:24:18.953Z,52.69
2022-11-15T20:26:47.293Z,52.65
2022-11-15T20:29:15.604Z,52.71
2022-11-15T20:31:44.324Z,52.69
2022-11-15T20:34:13.307Z,52.75
2022-11-15T20:36:41.525Z,52.82
2022-11-15T20:39:10.317Z,52.85
2022-11-15T20:41:39.106Z,53.06
2022-11-15T20:44:07.482Z,52.97
2022-11-15T20:46:35.982Z,52.89
2022-11-15T20:49:04.303Z,53.10
2022-11-15T20:51:32.734Z,53.03
2022-11-15T20:54:02.162Z,53.17
2022-11-15T20:56:30.652Z,53.14
2022-11-15T20:58:59.056Z,53.14
2022-11-15T21:01:27.806Z,53.42
2022-11-15T21:03:57.010Z,53.21
2022-11-15T21:06:26.929Z,53.53
2022-11-15T21:09:14.590Z,53.42
2022-11-15T21:12:01.346Z,53.75
2022-11-15T21:14:30.865Z,53.76
2022-11-15T21:16:59.683Z,53.76
2022-11-15T21:19:34.036Z,53.98
2022-11-15T21:22:06.627Z,53.89
2022-11-15T21:24:34.804Z,53.89
2022-11-15T21:27:03.397Z,53.83
2022-11-15T21:29:38.044Z,53.96
2022-11-15T21:32:10.074Z,53.89
2022-11-15T21:34:38.596Z,53.97
2022-11-15T21:37:07.343Z,53.89
2022-11-15T21:39:35.673Z,53.94
2022-11-15T21:42:04.238Z,53.94
2022-11-15T21:44:32.578Z,54.11
2022-11-15T21:47:00.710Z,54.12
2022-11-15T21:49:29.192Z,54.19
2022-11-15T21:51:57.442Z,54.29
2022-11-15T21:54:25.677Z,54.34
2022-11-15T21:56:53.697Z,54.46
2022-11-15T21:59:21.601Z,54.46
2022-11-15T22:02:08.065Z,54.51
2022-11-15T22:04:36.182Z,54.59
2022-11-15T22:07:04.117Z,54.64
2022-11-15T22:09:32.018Z,54.70
2022-11-15T22:12:00.460Z,54.65
2022-11-15T22:14:28.285Z,54.71
2022-11-15T22:16:56.371Z,54.69
2022-11-15T22:19:29.000Z,54.82
2022-11-15T22:21:56.953Z,54.87
2022-11-15T22:24:25.700Z,54.91
2022-11-15T22:27:13.363Z,54.94
2022-11-15T22:29:41.215Z,55.02
2022-11-15T22:32:09.163Z,54.95
2022-11-15T22:34:36.974Z,55.15
2022-11-15T22:37:20.089Z,55.08
2022-11-15T22:39:49.683Z,55.05
2022-11-15T22:42:23.225Z,55.09
2022-11-15T22:44:51.984Z,55.16
2022-11-15T22:47:20.102Z,55.25
2022-11-15T22:49:48.047Z,55.24
2022-11-15T22:52:15.827Z,55.21
2022-11-15T22:54:43.903Z,55.12
2022-11-15T22:57:11.820Z,55.11
2022-11-15T22:59:41.060Z,55.33
2022-11-15T23:02:08.783Z,55.22
2022-11-15T23:04:37.553Z,55.34
2022-11-15T23:07:05.472Z,55.26
2022-11-15T23:09:33.715Z,55.33
2022-11-15T23:12:20.593Z,55.39
2022-11-15T23:14:48.499Z,55.46
2022-11-15T23:17:16.416Z,55.35
2022-11-15T23:19:44.220Z,55.35
2022-11-15T23:22:30.847Z,55.31
2022-11-15T23:24:59.553Z,55.51
2022-11-15T23:27:27.378Z,55.35
2022-11-15T23:30:14.407Z,55.43
2022-11-15T23:33:00.910Z,55.46
2022-11-15T23:35:28.945Z,55.55
2022-11-15T23:37:56.810Z,55.46
2022-11-15T23:40:24.953Z,55.57
2022-11-15T23:42:53.073Z,55.56
2022-11-15T23:45:21.144Z,55.60
2022-11-15T23:47:49.219Z,55.51
2022-11-15T23:50:17.816Z,55.67
2022-11-15T23:52:46.173Z,55.86
2022-11-15T23:55:14.307Z,55.72
2022-11-15T23:57:42.491Z,55.86
